createdAt,value
2023-03-12T00:00:11.621Z,100004.72
2023-03-12T00:03:20.902Z,100007.31
2023-03-12T00:06:30.405Z,100004.25
2023-03-12T00:09:36.326Z,100011.56
2023-03-12T00:12:39.272Z,100006.72
2023-03-12T00:15:42.014Z,100001.19
2023-03-12T00:18:47.542Z,100010.16
2023-03-12T00:21:50.305Z,100021.50
2023-03-12T00:24:57.169Z,100019.72
2023-03-12T00:27:59.925Z,100015.47
2023-03-12T00:31:04.547Z,100013.94
2023-03-12T00:34:07.361Z,100018.06
2023-03-12T00:37:10.180Z,100012.03
2023-03-12T00:40:13.353Z,100018.41
2023-03-12T00:43:16.027Z,100021.59
2023-03-12T00:46:20.069Z,100025.12
2023-03-12T00:49:22.785Z,100018.66
2023-03-12T00:52:25.484Z,100016.53
2023-03-12T00:55:30.034Z,100015.94
2023-03-12T00:58:33.092Z,100022.66
2023-03-12T01:01:35.991Z,100027.84
2023-03-12T01:04:41.907Z,100032.31
2023-03-12T01:07:47.627Z,100026.41
2023-03-12T01:10:51.217Z,100028.28
2023-03-12T01:13:54.127Z,100030.97
2023-03-12T01:16:56.826Z,100028.03
2023-03-12T01:19:59.747Z,100028.25
2023-03-12T01:23:02.570Z,100029.53
2023-03-12T01:26:05.284Z,100027.50
2023-03-12T01:29:08.019Z,100032.41
2023-03-12T01:32:11.020Z,100027.22
2023-03-12T01:35:13.886Z,100035.22
2023-03-12T01:38:16.711Z,100038.75
2023-03-12T01:41:19.743Z,100041.13
2023-03-12T01:44:22.502Z,100046.53
2023-03-12T01:47:26.487Z,100048.41
2023-03-12T01:50:29.406Z,100048.06
2023-03-12T01:53:32.147Z,100053.59
2023-03-12T01:56:36.910Z,100057.72
2023-03-12T01:59:44.056Z,100064.78
2023-03-12T02:02:47.502Z,100071.81
2023-03-12T02:06:03.276Z,100071.59
2023-03-12T02:09:07.181Z,100074.63
2023-03-12T02:12:10.406Z,100074.28
2023-03-12T02:15:13.145Z,100082.72
2023-03-12T02:18:18.474Z,100079.31
2023-03-12T02:21:24.507Z,100090.72
2023-03-12T02:24:33.303Z,100092.03
2023-03-12T02:27:37.834Z,100098.78
2023-03-12T02:30:43.353Z,100097.94
2023-03-12T02:33:46.085Z,100104.56
2023-03-12T02:36:49.289Z,100106.66
2023-03-12T02:39:56.679Z,100109.56
2023-03-12T02:42:59.964Z,100109.13
2023-03-12T02:46:02.647Z,100100.31
2023-03-12T02:49:05.642Z,100101.25
2023-03-12T02:52:08.475Z,100107.81
2023-03-12T02:55:11.241Z,100101.81
2023-03-12T02:58:13.962Z,100091.06
2023-03-12T03:01:17.328Z,100100.81
2023-03-12T03:04:20.600Z,100103.19
2023-03-12T03:07:23.299Z,100113.97
2023-03-12T03:10:25.894Z,100125.37
2023-03-12T03:13:30.571Z,100134.19
2023-03-12T03:16:33.595Z,100130.84
2023-03-12T03:19:39.053Z,100134.59
2023-03-12T03:22:41.738Z,100124.38
2023-03-12T03:25:44.361Z,100136.59
2023-03-12T03:28:47.159Z,100139.31
2023-03-12T03:31:49.924Z,100149.06
2023-03-12T03:34:55.509Z,100151.75
2023-03-12T03:37:58.092Z,100123.91
2023-03-12T03:41:02.188Z,100148.31
2023-03-12T03:44:05.526Z,100155.56
2023-03-12T03:47:08.148Z,100154.63
2023-03-12T03:50:14.135Z,100165.00
2023-03-12T03:53:16.880Z,100169.94
2023-03-12T03:56:20.190Z,100157.09
2023-03-12T03:59:26.009Z,100161.06
2023-03-12T04:02:29.012Z,100177.91
2023-03-12T04:05:31.966Z,100168.19
2023-03-12T04:08:37.318Z,100179.94
2023-03-12T04:11:40.089Z,100188.41
2023-03-12T04:14:42.759Z,100184.47
2023-03-12T04:17:45.427Z,100184.31
2023-03-12T04:20:51.324Z,100179.53
2023-03-12T04:23:53.909Z,100190.16
2023-03-12T04:26:58.106Z,100190.78
2023-03-12T04:30:00.887Z,100191.91
2023-03-12T04:33:04.151Z,100198.47
2023-03-12T04:36:08.022Z,100206.84
2023-03-12T04:39:16.984Z,100209.34
2023-03-12T04:42:19.607Z,100212.12
2023-03-12T04:45:25.824Z,100213.78
2023-03-12T04:48:29.271Z,100210.19
2023-03-12T04:51:32.353Z,100209.50
2023-03-12T04:54:35.271Z,100203.97
2023-03-12T04:57:37.972Z,100211.62
2023-03-12T05:00:42.011Z,100219.28
2023-03-12T05:03:45.078Z,100237.53
2023-03-12T05:06:47.746Z,100243.09
2023-03-12T05:09:53.568Z,100239.59
2023-03-12T05:12:56.140Z,100246.03
2023-03-12T05:15:58.731Z,100256.00
2023-03-12T05:19:02.510Z,100254.63
2023-03-12T05:22:05.142Z,100262.06
2023-03-12T05:25:08.948Z,100266.41
2023-03-12T05:28:11.694Z,100271.37
2023-03-12T05:31:18.200Z,100278.75
2023-03-12T05:34:21.014Z,100282.06
2023-03-12T05:37:23.668Z,100298.22
2023-03-12T05:40:26.441Z,100300.69
2023-03-12T05:43:29.211Z,100314.44
2023-03-12T05:46:31.851Z,100313.59
2023-03-12T05:49:34.525Z,100318.31
2023-03-12T05:52:37.175Z,100321.47
2023-03-12T05:55:40.110Z,100320.53
2023-03-12T05:58:43.239Z,100325.63
2023-03-12T06:01:46.004Z,100329.72
2023-03-12T06:04:48.589Z,100338.84
2023-03-12T06:07:51.343Z,100338.47
2023-03-12T06:10:55.072Z,100338.19
2023-03-12T06:13:57.867Z,100338.09
2023-03-12T06:17:00.632Z,100337.91
2023-03-12T06:20:03.798Z,100351.88
2023-03-12T06:23:06.513Z,100359.06
2023-03-12T06:26:11.829Z,100349.31
2023-03-12T06:29:14.631Z,100356.88
2023-03-12T06:32:18.649Z,100358.09
2023-03-12T06:35:21.711Z,100367.44
2023-03-12T06:38:24.729Z,100365.53
2023-03-12T06:41:27.453Z,100373.97
2023-03-12T06:44:30.236Z,100381.22
2023-03-12T06:47:32.942Z,100392.97
2023-03-12T06:50:36.015Z,100387.84
2023-03-12T06:53:42.619Z,100403.94
2023-03-12T06:56:46.238Z,100402.84
2023-03-12T06:59:50.610Z,100400.81
2023-03-12T07:02:53.628Z,100402.41
2023-03-12T07:05:57.871Z,100409.31
2023-03-12T07:09:01.538Z,100410.06
2023-03-12T07:12:04.468Z,100414.62
2023-03-12T07:15:07.845Z,100413.34
2023-03-12T07:18:11.974Z,100412.56
2023-03-12T07:21:22.743Z,100415.06
2023-03-12T07:24:25.659Z,100416.63
2023-03-12T07:27:28.634Z,100419.94
2023-03-12T07:30:33.837Z,100425.44
2023-03-12T07:33:37.120Z,100425.56
2023-03-12T07:36:40.071Z,100436.22
2023-03-12T07:39:44.330Z,100420.00
2023-03-12T07:42:47.126Z,100433.63
2023-03-12T07:45:50.487Z,100432.78
2023-03-12T07:48:53.249Z,100431.47
2023-03-12T07:51:56.260Z,100428.81
2023-03-12T07:54:59.177Z,100429.25
2023-03-12T07:58:01.975Z,100432.16
2023-03-12T08:01:06.777Z,100423.72
2023-03-12T08:04:10.032Z,100424.50
2023-03-12T08:07:13.346Z,100420.81
2023-03-12T08:10:16.435Z,100427.25
2023-03-12T08:13:19.397Z,100422.97
2023-03-12T08:16:22.393Z,100427.22
2023-03-12T08:19:25.389Z,100424.06
2023-03-12T08:22:28.057Z,100426.81
2023-03-12T08:25:33.870Z,100430.44
2023-03-12T08:28:36.633Z,100426.53
2023-03-12T08:31:47.543Z,100430.81
2023-03-12T08:34:57.881Z,100432.22
2023-03-12T08:38:03.466Z,100437.91
2023-03-12T08:41:06.377Z,100431.25
2023-03-12T08:44:09.721Z,100445.47
2023-03-12T08:47:12.335Z,100452.34
2023-03-12T08:50:16.939Z,100451.53
2023-03-12T08:53:19.566Z,100453.31
2023-03-12T08:56:22.423Z,100454.84
2023-03-12T08:59:25.206Z,100464.13
2023-03-12T09:02:28.821Z,100459.78
2023-03-12T09:05:31.578Z,100459.22
2023-03-12T09:08:34.349Z,100455.88
2023-03-12T09:11:39.977Z,100445.59
2023-03-12T09:15:02.608Z,100460.37
2023-03-12T09:18:05.616Z,100463.50
2023-03-12T09:21:08.392Z,100461.63
2023-03-12T09:24:12.096Z,100462.53
2023-03-12T09:27:14.901Z,100458.19
2023-03-12T09:30:20.401Z,100454.66
2023-03-12T09:33:23.091Z,100463.06
2023-03-12T09:36:25.886Z,100466.00
2023-03-12T09:39:28.650Z,100466.00
2023-03-12T09:43:24.399Z,100457.22
2023-03-12T09:46:41.598Z,100460.22
2023-03-12T09:49:50.410Z,100467.56
2023-03-12T09:52:58.926Z,100463.56
2023-03-12T09:56:09.490Z,100463.13
2023-03-12T09:59:13.081Z,100465.78
2023-03-12T10:02:37.171Z,100467.78
2023-03-12T10:06:08.122Z,100457.81
2023-03-12T10:09:31.039Z,100467.34
2023-03-12T10:12:33.767Z,100461.25
2023-03-12T10:15:49.894Z,100472.19
2023-03-12T10:19:06.955Z,100464.16
2023-03-12T10:22:35.966Z,100457.13
2023-03-12T10:25:51.746Z,100454.28
2023-03-12T10:29:23.287Z,100459.19
2023-03-12T10:32:26.359Z,100460.41
2023-03-12T10:35:32.360Z,100467.59
2023-03-12T10:38:35.091Z,100461.31
2023-03-12T10:41:37.756Z,100456.00
2023-03-12T10:44:40.631Z,100444.00
2023-03-12T10:47:44.701Z,100454.88
2023-03-12T10:51:02.424Z,100457.09
2023-03-12T10:54:22.738Z,100445.53
2023-03-12T10:57:39.874Z,100441.38
2023-03-12T11:00:56.932Z,100451.03
2023-03-12T11:04:18.477Z,100446.66
2023-03-12T11:07:33.222Z,100445.94
2023-03-12T11:10:45.560Z,100446.34
2023-03-12T11:14:13.343Z,100441.63
2023-03-12T11:17:28.243Z,100438.72
2023-03-12T11:20:34.864Z,100443.72
2023-03-12T11:23:44.619Z,100435.78
2023-03-12T11:27:20.826Z,100434.25
2023-03-12T11:30:37.523Z,100415.94
2023-03-12T11:33:40.443Z,100427.69
2023-03-12T11:36:52.959Z,100418.09
2023-03-12T11:40:13.677Z,100410.84
2023-03-12T11:43:43.278Z,100416.87
2023-03-12T11:47:00.247Z,100406.47
2023-03-12T11:50:27.076Z,100400.06
2023-03-12T11:53:44.955Z,100401.19
2023-03-12T11:56:54.577Z,100405.81
2023-03-12T12:00:16.338Z,100398.62
2023-03-12T12:03:44.015Z,100394.09
2023-03-12T12:07:17.210Z,100388.22
2023-03-12T12:10:44.846Z,100382.31
2023-03-12T12:13:50.695Z,100384.28
2023-03-12T12:17:08.040Z,100380.44
2023-03-12T12:20:11.437Z,100385.31
2023-03-12T12:23:24.317Z,100377.31
2023-03-12T12:26:46.223Z,100372.87
2023-03-12T12:30:05.174Z,100367.69
2023-03-12T12:33:33.305Z,100372.16
2023-03-12T12:36:36.750Z,100375.78
2023-03-12T12:39:46.623Z,100373.63
2023-03-12T12:43:19.405Z,100364.22
2023-03-12T12:46:23.576Z,100368.34
2023-03-12T12:49:48.908Z,100353.72
2023-03-12T12:53:07.286Z,100358.78
2023-03-12T12:56:28.667Z,100357.75
2023-03-12T12:59:52.454Z,100355.09
2023-03-12T13:02:56.819Z,100354.25
2023-03-12T13:06:03.121Z,100345.81
2023-03-12T13:09:16.711Z,100345.91
2023-03-12T13:12:27.547Z,100330.41
2023-03-12T13:15:30.867Z,100328.47
2023-03-12T13:18:34.033Z,100336.03
2023-03-12T13:22:37.095Z,100342.63
2023-03-12T13:25:53.521Z,100338.00
2023-03-12T13:29:12.002Z,100349.25
2023-03-12T13:32:39.348Z,100348.53
2023-03-12T13:35:42.879Z,100354.03
2023-03-12T13:39:08.405Z,100344.84
2023-03-12T13:42:23.336Z,100346.34
2023-03-12T13:45:30.758Z,100349.37
2023-03-12T13:48:35.328Z,100348.56
2023-03-12T13:51:46.788Z,100346.31
2023-03-12T13:54:57.969Z,100344.88
2023-03-12T13:58:21.577Z,100348.56
2023-03-12T14:01:29.258Z,100342.75
2023-03-12T14:04:38.884Z,100343.22
2023-03-12T14:08:06.239Z,100353.19
2023-03-12T14:11:09.499Z,100351.25
2023-03-12T14:14:53.713Z,100341.81
2023-03-12T14:18:02.415Z,100339.13
2023-03-12T14:21:10.723Z,100345.78
2023-03-12T14:24:28.774Z,100344.19
2023-03-12T14:27:33.476Z,100342.75
2023-03-12T14:30:42.241Z,100341.03
2023-03-12T14:33:57.711Z,100333.53
2023-03-12T14:37:06.567Z,100327.66
2023-03-12T14:40:23.548Z,100324.44
2023-03-12T14:43:29.639Z,100335.22
2023-03-12T14:46:32.346Z,100341.87
2023-03-12T14:49:41.561Z,100351.47
2023-03-12T14:52:44.428Z,100357.75
2023-03-12T14:55:47.379Z,100353.88
2023-03-12T14:58:51.806Z,100363.53
2023-03-12T15:02:08.258Z,100360.13
2023-03-12T15:05:17.357Z,100358.34
2023-03-12T15:08:20.360Z,100351.00
2023-03-12T15:11:28.267Z,100336.25
2023-03-12T15:14:35.515Z,100346.75
2023-03-12T15:17:38.310Z,100336.47
2023-03-12T15:20:41.544Z,100332.53
2023-03-12T15:23:46.407Z,100344.72
2023-03-12T15:26:49.106Z,100352.22
2023-03-12T15:29:52.476Z,100340.50
2023-03-12T15:33:12.811Z,100343.94
2023-03-12T15:36:17.359Z,100347.62
2023-03-12T15:39:30.364Z,100347.62
2023-03-12T15:42:39.859Z,100355.16
2023-03-12T15:45:42.919Z,100356.94
2023-03-12T15:48:51.888Z,100348.06
2023-03-12T15:52:07.745Z,100342.94
2023-03-12T15:55:10.555Z,100346.50
2023-03-12T15:58:43.076Z,100338.19
2023-03-12T16:01:48.113Z,100338.25
2023-03-12T16:04:50.736Z,100331.50
2023-03-12T16:07:54.381Z,100333.44
2023-03-12T16:10:57.865Z,100340.03
2023-03-12T16:14:08.790Z,100340.41
2023-03-12T16:17:14.737Z,100333.47
2023-03-12T16:20:18.223Z,100337.28
2023-03-12T16:23:21.257Z,100340.44
2023-03-12T16:26:24.383Z,100348.91
2023-03-12T16:29:32.639Z,100347.53
2023-03-12T16:32:36.451Z,100352.19
2023-03-12T16:35:39.534Z,100351.31
2023-03-12T16:38:43.511Z,100352.22
2023-03-12T16:41:47.341Z,100357.59
2023-03-12T16:44:50.656Z,100359.31
2023-03-12T16:47:58.918Z,100360.81
2023-03-12T16:51:02.644Z,100355.97
2023-03-12T16:54:11.977Z,100353.66
2023-03-12T16:57:36.431Z,100363.63
2023-03-12T17:00:40.819Z,100360.22
2023-03-12T17:03:45.758Z,100364.19
2023-03-12T17:06:48.772Z,100353.00
2023-03-12T17:09:51.566Z,100348.19
2023-03-12T17:12:55.700Z,100350.84
2023-03-12T17:15:58.858Z,100354.88
2023-03-12T17:19:01.881Z,100352.22
2023-03-12T17:22:05.165Z,100359.41
2023-03-12T17:25:09.695Z,100361.97
2023-03-12T17:28:13.839Z,100362.25
2023-03-12T17:31:16.847Z,100368.19
2023-03-12T17:34:20.142Z,100357.22
2023-03-12T17:37:23.296Z,100362.03
2023-03-12T17:40:26.948Z,100365.03
2023-03-12T17:43:29.925Z,100367.53
2023-03-12T17:46:33.568Z,100365.75
2023-03-12T17:49:36.923Z,100367.69
2023-03-12T17:52:41.002Z,100375.66
2023-03-12T17:55:43.987Z,100380.22
2023-03-12T17:58:46.952Z,100371.56
2023-03-12T18:01:49.672Z,100373.47
2023-03-12T18:04:52.772Z,100384.50
2023-03-12T18:07:55.827Z,100372.91
2023-03-12T18:10:58.986Z,100378.41
2023-03-12T18:14:02.203Z,100376.88
2023-03-12T18:17:05.397Z,100379.22
2023-03-12T18:20:23.349Z,100386.22
2023-03-12T18:23:31.890Z,100379.06
2023-03-12T18:26:35.124Z,100377.69
2023-03-12T18:29:38.094Z,100389.53
2023-03-12T18:32:41.553Z,100385.41
2023-03-12T18:35:44.876Z,100391.59
2023-03-12T18:38:47.878Z,100393.94
2023-03-12T18:41:52.180Z,100387.06
2023-03-12T18:44:55.229Z,100377.16
2023-03-12T18:47:58.060Z,100382.94
2023-03-12T18:51:01.041Z,100386.25
2023-03-12T18:54:04.239Z,100375.78
2023-03-12T18:57:07.392Z,100377.44
2023-03-12T19:00:17.399Z,100384.47
2023-03-12T19:03:21.478Z,100382.81
2023-03-12T19:06:24.998Z,100390.09
2023-03-12T19:09:27.899Z,100391.06
2023-03-12T19:12:36.585Z,100384.88
2023-03-12T19:15:43.664Z,100386.66
2023-03-12T19:18:46.853Z,100386.50
2023-03-12T19:21:50.065Z,100391.59
2023-03-12T19:24:54.257Z,100402.72
2023-03-12T19:27:57.208Z,100398.34
2023-03-12T19:31:08.948Z,100397.63
2023-03-12T19:34:11.844Z,100400.88
2023-03-12T19:37:16.389Z,100395.22
2023-03-12T19:40:20.231Z,100400.72
2023-03-12T19:43:23.758Z,100409.50
2023-03-12T19:46:26.767Z,100410.91
2023-03-12T19:49:29.980Z,100397.00
2023-03-12T19:52:33.536Z,100398.25
2023-03-12T19:55:37.463Z,100397.66
2023-03-12T19:58:40.755Z,100387.22
2023-03-12T20:01:43.940Z,100392.72
2023-03-12T20:04:47.346Z,100394.53
2023-03-12T20:07:52.429Z,100396.59
2023-03-12T20:11:02.552Z,100392.34
2023-03-12T20:14:05.949Z,100401.78
2023-03-12T20:17:08.987Z,100402.41
2023-03-12T20:20:16.756Z,100413.81
2023-03-12T20:23:20.034Z,100412.03
2023-03-12T20:26:23.729Z,100412.56
2023-03-12T20:29:26.552Z,100419.06
2023-03-12T20:32:30.834Z,100418.91
2023-03-12T20:35:33.810Z,100417.94
2023-03-12T20:38:36.798Z,100423.31
2023-03-12T20:41:42.736Z,100417.81
2023-03-12T20:44:45.367Z,100422.50
2023-03-12T20:47:48.318Z,100420.56
2023-03-12T20:50:52.831Z,100415.75
2023-03-12T20:53:55.831Z,100426.81
2023-03-12T20:56:59.008Z,100422.97
2023-03-12T21:00:01.800Z,100426.41
2023-03-12T21:03:05.688Z,100426.97
2023-03-12T21:06:08.648Z,100421.88
2023-03-12T21:09:11.700Z,100429.19
2023-03-12T21:12:14.615Z,100426.00
2023-03-12T21:15:17.549Z,100425.34
2023-03-12T21:18:20.534Z,100413.59
2023-03-12T21:21:23.561Z,100412.50
2023-03-12T21:24:26.223Z,100416.91
2023-03-12T21:27:35.828Z,100414.28
2023-03-12T21:30:47.530Z,100418.84
2023-03-12T21:33:50.370Z,100427.09
2023-03-12T21:36:52.987Z,100432.19
2023-03-12T21:40:01.231Z,100424.47
2023-03-12T21:43:04.863Z,100432.34
2023-03-12T21:46:12.472Z,100434.81
2023-03-12T21:49:18.138Z,100439.66
2023-03-12T21:52:24.005Z,100434.94
2023-03-12T21:55:26.752Z,100441.59
2023-03-12T21:58:30.885Z,100435.00
2023-03-12T22:01:34.937Z,100429.63
2023-03-12T22:04:41.156Z,100431.69
2023-03-12T22:07:43.848Z,100423.28
2023-03-12T22:10:48.977Z,100422.16
2023-03-12T22:13:51.668Z,100423.41
2023-03-12T22:16:54.924Z,100427.53
2023-03-12T22:19:57.760Z,100434.28
2023-03-12T22:23:01.211Z,100430.25
2023-03-12T22:26:06.101Z,100429.31
2023-03-12T22:29:09.529Z,100419.38
2023-03-12T22:32:12.571Z,100448.44
2023-03-12T22:35:15.435Z,100448.72
2023-03-12T22:38:18.108Z,100429.53
2023-03-12T22:41:26.234Z,100457.00
2023-03-12T22:44:28.924Z,100445.69
2023-03-12T22:47:34.377Z,100458.91
2023-03-12T22:50:38.834Z,100452.00
2023-03-12T22:53:41.534Z,100464.66
2023-03-12T22:56:44.169Z,100454.19
2023-03-12T22:59:48.142Z,100459.28
2023-03-12T23:02:51.179Z,100452.41
2023-03-12T23:05:54.707Z,100452.69
2023-03-12T23:08:57.456Z,100449.78
2023-03-12T23:12:00.478Z,100442.34
2023-03-12T23:15:05.387Z,100442.34
2023-03-12T23:18:08.056Z,100450.59
2023-03-12T23:21:12.923Z,100455.31
2023-03-12T23:24:15.696Z,100450.06
2023-03-12T23:27:18.407Z,100444.00
2023-03-12T23:30:21.122Z,100448.94
2023-03-12T23:33:24.891Z,100454.34
2023-03-12T23:36:27.836Z,100461.22
2023-03-12T23:39:31.907Z,100459.03
2023-03-12T23:42:35.738Z,100456.84
2023-03-12T23:45:38.433Z,100466.91
2023-03-12T23:48:41.781Z,100473.28
2023-03-12T23:51:44.497Z,100465.84
2023-03-12T23:54:47.122Z,100478.66
2023-03-12T23:57:49.798Z,100459.50
